Time;durP1;ratioP1;P1;durP2;ratioP2;P2;SDS_P1;SDS_P2;PMS_P1;PMS_P2;Temp;Humidity;BMP_temperature;BMP_pressure;BME280_temperature;BME280_humidity;BME280_pressure;Samples;Min_cycle;Max_cycle;Signal;HPM_P1;HPM_P2
2021/08/19 00:01:40;;;;;;;;;2.67;2.67;;;;;20.23;60.41;101433.19;6309188;22;45500;-76
2021/08/19 00:04:06;;;;;;;;;3.33;2.00;;;;;20.14;60.66;101421.00;6309689;22;45330;-76
2021/08/19 00:06:31;;;;;;;;;3.33;3.33;;;;;20.12;60.93;101425.50;6309760;22;45278;-76
2021/08/19 00:08:57;;;;;;;;;2.33;1.67;;;;;20.11;60.75;101418.44;6281392;22;45374;-76
2021/08/19 00:11:22;;;;;;;;;1.00;1.00;;;;;20.13;60.84;101429.94;6281278;22;48051;-76
2021/08/19 00:13:47;;;;;;;;;2.00;2.00;;;;;20.12;60.66;101425.50;6309329;22;45319;-76
2021/08/19 00:16:13;;;;;;;;;3.00;3.00;;;;;20.09;60.74;101417.59;6281262;22;45181;-76
2021/08/19 00:18:39;;;;;;;;;1.00;1.00;;;;;20.11;60.85;101418.44;6308750;22;45171;-76
2021/08/19 00:21:05;;;;;;;;;3.67;3.67;;;;;20.10;60.92;101416.69;6309330;22;45207;-77
2021/08/19 00:23:34;;;;;;;;;1.67;1.67;;;;;20.09;61.02;101412.25;6310416;22;45187;-77
2021/08/19 00:26:00;;;;;;;;;2.33;2.33;;;;;20.11;60.79;101413.06;6282782;22;45197;-77
2021/08/19 00:28:25;;;;;;;;;2.67;2.67;;;;;20.07;61.02;101403.41;6311647;22;45365;-77
2021/08/19 00:30:51;;;;;;;;;2.33;2.33;;;;;20.07;60.93;101399.84;6283667;22;46870;-76
2021/08/19 00:33:17;;;;;;;;;2.67;2.67;;;;;20.09;60.86;101398.00;6282303;22;45334;-76
2021/08/19 00:35:42;;;;;;;;;3.00;2.00;;;;;20.10;60.87;101395.31;6282916;22;45390;-76
2021/08/19 00:38:07;;;;;;;;;3.67;3.67;;;;;20.12;60.86;101397.91;6282954;22;45390;-76
2021/08/19 00:40:34;;;;;;;;;2.00;2.00;;;;;20.13;60.77;101396.97;6310861;22;45728;-76
2021/08/19 00:43:04;;;;;;;;;1.67;1.67;;;;;20.11;60.81;101402.38;6282150;22;45181;-76
2021/08/19 00:45:31;;;;;;;;;2.33;2.33;;;;;20.03;60.70;101391.94;6282667;22;45291;-76
2021/08/19 00:47:57;;;;;;;;;2.33;2.33;;;;;20.02;60.55;101391.97;6310623;22;45342;-76
2021/08/19 00:50:23;;;;;;;;;3.67;3.67;;;;;19.97;60.85;101389.47;6282392;22;46486;-76
2021/08/19 00:52:49;;;;;;;;;1.00;1.00;;;;;19.97;60.46;101392.16;6282646;22;45208;-76
2021/08/19 00:55:16;;;;;;;;;4.00;3.00;;;;;19.91;60.64;101386.13;6282693;22;45237;-76
2021/08/19 00:57:42;;;;;;;;;3.33;3.00;;;;;19.92;60.83;101390.56;6310918;22;45165;-77
2021/08/19 01:00:09;;;;;;;;;2.00;2.00;;;;;19.94;60.95;101402.94;6282151;22;46172;-76
2021/08/19 01:02:36;;;;;;;;;2.00;1.33;;;;;19.91;60.64;101396.81;6309625;22;45255;-76
2021/08/19 01:05:05;;;;;;;;;3.00;3.00;;;;;19.90;61.15;101387.03;6282437;22;45296;-77
2021/08/19 01:07:31;;;;;;;;;3.33;2.00;;;;;19.87;60.62;101385.34;6309977;22;45467;-76
2021/08/19 01:09:58;;;;;;;;;2.33;1.33;;;;;19.89;60.76;101391.53;6310454;22;45207;-76
2021/08/19 01:12:24;;;;;;;;;1.33;1.33;;;;;19.86;61.16;101391.63;6310220;22;45373;-77
2021/08/19 01:14:49;;;;;;;;;3.00;3.00;;;;;19.91;61.07;101394.13;6310904;22;45367;-77
2021/08/19 01:17:17;;;;;;;;;2.67;2.67;;;;;19.89;60.90;101387.94;6310291;22;45616;-77
2021/08/19 01:19:46;;;;;;;;;3.00;2.00;;;;;19.88;60.70;101384.41;6310387;22;46190;-77
2021/08/19 01:22:11;;;;;;;;;2.33;2.33;;;;;19.90;61.22;101382.56;6282375;22;45269;-76
2021/08/19 01:24:39;;;;;;;;;2.00;2.00;;;;;19.92;60.97;101393.22;6310574;22;45418;-76
2021/08/19 01:27:05;;;;;;;;;3.67;2.67;;;;;19.87;61.01;101385.34;6282578;22;45287;-76
2021/08/19 01:29:31;;;;;;;;;2.00;2.00;;;;;19.81;61.23;101373.06;6282816;22;46125;-76
2021/08/19 01:32:04;;;;;;;;;2.67;2.67;;;;;19.82;61.00;101380.13;6310072;22;45374;-76
2021/08/19 01:34:30;;;;;;;;;2.00;2.00;;;;;19.80;61.26;101376.63;6282465;22;45279;-76
2021/08/19 01:36:56;;;;;;;;;4.67;4.67;;;;;19.83;60.95;101375.66;6282117;22;45407;-76
2021/08/19 01:39:22;;;;;;;;;1.33;1.00;;;;;19.82;61.45;101374.78;6309892;22;45370;-76
2021/08/19 01:41:48;;;;;;;;;2.67;2.67;;;;;19.82;61.17;101372.13;6282375;22;45332;-76
2021/08/19 01:44:13;;;;;;;;;5.33;3.00;;;;;19.78;61.03;101364.25;6311248;22;45194;-76
2021/08/19 01:46:39;;;;;;;;;1.67;1.67;;;;;19.82;60.90;101368.59;6283121;22;45520;-76
2021/08/19 01:49:04;;;;;;;;;3.67;3.00;;;;;19.78;61.07;101367.81;6311946;22;45174;-77
2021/08/19 01:51:30;;;;;;;;;2.00;2.00;;;;;19.83;61.15;101379.25;6311737;22;45208;-76
2021/08/19 01:53:56;;;;;;;;;3.33;3.33;;;;;19.77;61.14;101363.38;6282490;22;45246;-77
2021/08/19 01:56:24;;;;;;;;;3.67;3.67;;;;;19.78;61.39;101374.94;6310252;22;45136;-77
2021/08/19 01:58:55;;;;;;;;;4.00;4.00;;;;;19.75;60.94;101365.25;6309956;22;45460;-76
2021/08/19 02:01:23;;;;;;;;;1.67;1.67;;;;;19.70;61.00;101358.28;6310001;22;45160;-76
2021/08/19 02:03:50;;;;;;;;;3.33;3.33;;;;;19.72;61.02;101368.00;6310258;22;45399;-76
2021/08/19 02:06:15;;;;;;;;;1.67;1.67;;;;;19.76;61.30;101369.66;6310142;22;45306;-76
2021/08/19 02:08:41;;;;;;;;;3.00;3.00;;;;;19.73;61.39;101367.09;6282040;22;48109;-76
2021/08/19 02:11:06;;;;;;;;;2.33;2.33;;;;;19.68;61.12;101355.66;6310327;22;45563;-76
2021/08/19 02:13:32;;;;;;;;;2.33;2.33;;;;;19.69;60.94;101356.53;6282697;22;45314;-76
2021/08/19 02:15:58;;;;;;;;;1.67;1.00;;;;;19.65;61.04;101358.41;6282056;22;45390;-76
2021/08/19 02:18:24;;;;;;;;;2.00;2.00;;;;;19.65;60.88;101361.09;6282009;22;47109;-77
2021/08/19 02:20:49;;;;;;;;;2.00;2.00;;;;;19.66;60.68;101369.97;6310301;22;45216;-76
2021/08/19 02:23:15;;;;;;;;;2.33;2.33;;;;;19.59;61.07;101359.47;6310720;22;45208;-76
2021/08/19 02:25:40;;;;;;;;;2.00;2.00;;;;;19.64;60.92;101366.47;6282176;22;45122;-76
2021/08/19 02:28:05;;;;;;;;;5.67;4.67;;;;;19.64;61.01;101361.97;6310283;22;45161;-76
2021/08/19 02:30:31;;;;;;;;;2.67;2.67;;;;;19.59;60.82;101355.91;6282244;22;45189;-76
2021/08/19 02:32:56;;;;;;;;;2.33;2.33;;;;;19.57;60.81;101347.97;6282115;22;45150;-77
2021/08/19 02:35:25;;;;;;;;;2.67;2.67;;;;;19.56;60.68;101340.84;6282212;22;45222;-77
2021/08/19 02:37:53;;;;;;;;;2.67;2.33;;;;;19.54;61.07;101342.72;6310248;22;45422;-76
2021/08/19 02:40:18;;;;;;;;;3.33;3.00;;;;;19.56;61.07;101346.19;6281976;22;45111;-77
2021/08/19 02:42:44;;;;;;;;;1.67;1.67;;;;;19.53;61.13;101345.44;6310363;22;45137;-76
2021/08/19 02:45:12;;;;;;;;;3.67;3.00;;;;;19.56;60.68;101348.00;6309923;22;45627;-76
2021/08/19 02:47:37;;;;;;;;;4.00;4.00;;;;;19.49;61.40;101339.31;6281282;22;47953;-76
2021/08/19 02:50:03;;;;;;;;;3.00;3.00;;;;;19.50;60.76;101333.03;6309849;22;45269;-76
2021/08/19 02:52:29;;;;;;;;;1.67;1.67;;;;;19.49;60.33;101333.97;6282154;22;45311;-76
2021/08/19 02:54:54;;;;;;;;;5.00;4.00;;;;;19.49;60.48;101327.78;6282057;22;45517;-76
2021/08/19 02:57:19;;;;;;;;;3.67;3.67;;;;;19.50;61.14;101345.53;6310077;22;45530;-76
2021/08/19 02:59:45;;;;;;;;;2.00;2.00;;;;;19.48;60.82;101332.22;6309926;22;45237;-76
2021/08/19 03:02:10;;;;;;;;;3.00;3.00;;;;;19.46;60.71;101333.19;6281724;22;45275;-76
2021/08/19 03:04:36;;;;;;;;;3.00;3.00;;;;;19.47;60.95;101334.94;6282093;22;45318;-76
2021/08/19 03:07:01;;;;;;;;;2.00;2.00;;;;;19.44;60.98;101330.56;6309984;22;45803;-76
2021/08/19 03:09:27;;;;;;;;;3.00;3.00;;;;;19.40;60.49;101320.91;6310045;22;45201;-76
2021/08/19 03:11:52;;;;;;;;;4.33;3.00;;;;;19.39;60.54;101325.38;6310069;22;45283;-76
2021/08/19 03:14:18;;;;;;;;;2.33;2.33;;;;;19.44;60.87;101332.38;6281502;22;45605;-76
2021/08/19 03:16:43;;;;;;;;;2.33;2.33;;;;;19.39;60.92;101332.50;6309395;22;45181;-76
2021/08/19 03:19:09;;;;;;;;;3.33;2.00;;;;;19.40;60.58;101331.56;6307388;22;45228;-76
2021/08/19 03:21:36;;;;;;;;;3.67;2.00;;;;;19.42;60.96;101327.06;6310308;22;45421;-76
2021/08/19 03:24:02;;;;;;;;;1.67;1.67;;;;;19.37;61.02;101323.66;6310033;22;45191;-76
2021/08/19 03:26:28;;;;;;;;;1.00;1.00;;;;;19.35;60.60;101323.72;6309568;22;46357;-76
2021/08/19 03:28:54;;;;;;;;;3.33;2.00;;;;;19.38;60.60;101326.31;6309586;22;45318;-76
2021/08/19 03:31:19;;;;;;;;;3.00;3.00;;;;;19.32;60.63;101313.13;6309421;22;45328;-76
2021/08/19 03:33:46;;;;;;;;;2.67;1.67;;;;;19.37;60.76;101324.53;6309584;22;45239;-76
2021/08/19 03:36:12;;;;;;;;;3.00;2.67;;;;;19.30;60.54;101312.31;6309759;22;45358;-76
2021/08/19 03:38:37;;;;;;;;;1.67;1.33;;;;;19.32;60.90;101314.91;6281392;22;45196;-76
2021/08/19 03:41:02;;;;;;;;;3.00;2.00;;;;;19.33;61.16;101319.34;6281730;22;45289;-76
2021/08/19 03:43:28;;;;;;;;;3.00;2.67;;;;;19.30;60.99;101317.66;6281654;22;45390;-76
2021/08/19 03:45:53;;;;;;;;;6.33;3.67;;;;;19.27;61.28;101307.06;6309508;22;45145;-76
2021/08/19 03:48:21;;;;;;;;;5.00;2.00;;;;;19.30;60.51;101317.66;6281509;22;45212;-76
2021/08/19 03:50:47;;;;;;;;;2.67;2.67;;;;;19.33;60.84;101319.34;6281732;22;45222;-76
2021/08/19 03:53:12;;;;;;;;;3.00;3.00;;;;;19.32;61.14;101320.25;6309777;22;45187;-76
2021/08/19 03:55:38;;;;;;;;;6.33;4.33;;;;;19.29;60.87;101307.00;6309413;22;46511;-76
2021/08/19 03:58:03;;;;;;;;;5.67;4.00;;;;;19.34;60.97;101318.41;6280941;22;45397;-76
2021/08/19 04:00:29;;;;;;;;;3.00;2.67;;;;;19.30;60.91;101303.41;6281589;22;45391;-76
2021/08/19 04:02:55;;;;;;;;;5.00;5.00;;;;;19.36;60.90;101320.13;6281755;22;45373;-76
2021/08/19 04:05:20;;;;;;;;;4.25;4.25;;;;;19.32;61.15;101309.56;6282879;22;45982;-76
2021/08/19 04:07:46;;;;;;;;;5.00;4.25;;;;;19.36;61.02;101321.94;6282755;22;45275;-76
2021/08/19 04:10:12;;;;;;;;;4.33;3.33;;;;;19.37;61.24;101319.19;6311103;22;45354;-76
2021/08/19 04:12:37;;;;;;;;;3.33;2.33;;;;;19.32;61.07;101313.13;6310956;22;45342;-76
2021/08/19 04:15:05;;;;;;;;;3.33;3.33;;;;;19.33;61.25;101317.56;6283004;22;45868;-76
2021/08/19 04:17:30;;;;;;;;;3.50;3.50;;;;;19.32;61.25;101320.25;6282007;22;46558;-76
2021/08/19 04:19:56;;;;;;;;;4.00;4.00;;;;;19.32;61.01;101314.91;6283107;22;45233;-76
2021/08/19 04:22:21;;;;;;;;;5.00;5.00;;;;;19.32;61.26;101322.94;6310783;22;45102;-76
2021/08/19 04:24:46;;;;;;;;;3.67;3.67;;;;;19.29;61.07;101313.22;6282700;22;47973;-76
2021/08/19 04:27:12;;;;;;;;;2.75;2.75;;;;;19.30;61.45;101316.75;6310600;22;45093;-76
2021/08/19 04:29:37;;;;;;;;;6.75;6.50;;;;;19.29;61.38;101315.88;6310972;22;45144;-76
2021/08/19 04:32:04;;;;;;;;;5.67;5.67;;;;;19.27;60.97;101303.50;6310185;22;45393;-76
2021/08/19 04:34:30;;;;;;;;;3.00;3.00;;;;;19.27;61.29;101314.19;6282157;22;46252;-76
2021/08/19 04:36:56;;;;;;;;;3.67;3.33;;;;;19.28;61.21;101311.47;6311524;22;45453;-76
2021/08/19 04:39:22;;;;;;;;;4.33;3.67;;;;;19.29;61.83;101320.34;6283802;22;45447;-76
2021/08/19 04:41:47;;;;;;;;;3.67;3.67;;;;;19.27;61.45;101314.19;6282656;22;45379;-76
2021/08/19 04:44:13;;;;;;;;;4.75;4.50;;;;;19.25;61.12;101316.91;6310418;22;45512;-76
2021/08/19 04:46:38;;;;;;;;;3.75;3.75;;;;;19.24;61.43;101314.28;6310851;22;45279;-76
2021/08/19 04:49:06;;;;;;;;;8.00;5.67;;;;;19.20;61.63;101305.50;6282499;22;45256;-76
2021/08/19 04:51:33;;;;;;;;;5.00;3.50;;;;;19.23;61.39;101315.22;6282497;22;45272;-77
2021/08/19 04:54:00;;;;;;;;;5.00;5.00;;;;;19.19;61.80;101306.41;6310241;22;45562;-76
2021/08/19 04:56:27;;;;;;;;;5.00;3.67;;;;;19.20;62.33;101317.97;6310227;22;45179;-76
2021/08/19 04:58:53;;;;;;;;;6.33;5.67;;;;;19.14;61.76;101319.91;6308441;22;45420;-77
2021/08/19 05:01:18;;;;;;;;;3.00;3.00;;;;;19.14;61.74;101325.25;6281936;22;45413;-76
2021/08/19 05:03:43;;;;;;;;;5.00;5.00;;;;;19.14;61.48;101332.38;6282875;22;46931;-76
2021/08/19 05:06:09;;;;;;;;;5.00;5.00;;;;;19.13;61.82;101331.50;6310804;22;45223;-76
2021/08/19 05:08:34;;;;;;;;;6.00;6.00;;;;;19.13;61.60;101327.94;6282529;22;45427;-77
2021/08/19 05:10:59;;;;;;;;;5.00;5.00;;;;;19.10;61.71;101325.38;6282638;22;45946;-77
2021/08/19 05:13:25;;;;;;;;;4.33;4.33;;;;;19.13;61.74;101327.94;6281947;22;45837;-76
2021/08/19 05:15:50;;;;;;;;;5.67;5.33;;;;;19.13;61.40;101331.50;6310258;22;45161;-76
2021/08/19 05:18:15;;;;;;;;;5.25;4.00;;;;;19.11;61.93;101332.47;6310220;22;45228;-76
2021/08/19 05:20:41;;;;;;;;;5.00;5.00;;;;;19.13;61.65;101338.63;6282185;22;45169;-76
2021/08/19 05:23:07;;;;;;;;;4.67;4.67;;;;;19.08;61.99;101329.88;6282462;22;47246;-76
2021/08/19 05:25:32;;;;;;;;;4.00;4.00;;;;;19.08;61.56;101332.56;6310302;22;45151;-76
2021/08/19 05:27:58;;;;;;;;;5.67;5.67;;;;;19.08;61.78;101330.75;6310573;22;45619;-76
2021/08/19 05:30:23;;;;;;;;;5.00;4.00;;;;;19.06;61.94;101329.03;6282049;22;45462;-76
2021/08/19 05:32:48;;;;;;;;;6.67;6.67;;;;;19.06;61.79;101332.63;6309855;22;45361;-76
2021/08/19 05:35:14;;;;;;;;;4.00;4.00;;;;;19.12;61.79;101334.22;6310794;22;45270;-76
2021/08/19 05:37:39;;;;;;;;;4.00;4.00;;;;;19.14;61.91;101332.38;6282574;22;45469;-76
2021/08/19 05:40:05;;;;;;;;;5.00;4.67;;;;;19.19;61.92;101341.09;6281882;22;45348;-76
2021/08/19 05:42:31;;;;;;;;;6.00;6.00;;;;;19.19;61.94;101333.09;6282265;22;47308;-76
2021/08/19 05:44:56;;;;;;;;;6.00;5.00;;;;;19.20;61.82;101334.00;6309592;22;45315;-76
2021/08/19 05:47:22;;;;;;;;;6.00;6.00;;;;;19.18;61.61;101328.69;6282175;22;45733;-76
2021/08/19 05:49:47;;;;;;;;;3.67;3.67;;;;;19.20;61.66;101336.66;6310279;22;45464;-76
2021/08/19 05:52:14;;;;;;;;;5.00;5.00;;;;;19.22;61.52;101340.13;6310276;22;45540;-76
2021/08/19 05:54:39;;;;;;;;;6.33;6.33;;;;;19.23;61.38;101347.25;6282238;22;45234;-76
2021/08/19 05:57:05;;;;;;;;;5.67;5.33;;;;;19.23;61.25;101342.78;6282346;22;45306;-76
2021/08/19 05:59:31;;;;;;;;;5.00;5.00;;;;;19.23;61.79;101341.91;6310178;22;45562;-76
2021/08/19 06:01:56;;;;;;;;;8.33;6.33;;;;;19.23;61.30;101348.13;6309722;22;46117;-76
2021/08/19 06:04:21;;;;;;;;;5.75;4.75;;;;;19.25;61.37;101350.75;6282189;22;45260;-76
2021/08/19 06:06:47;;;;;;;;;5.75;5.75;;;;;19.25;61.36;101348.94;6310276;22;45109;-76
2021/08/19 06:09:13;;;;;;;;;8.25;7.50;;;;;19.25;61.34;101345.41;6309714;22;45145;-76
2021/08/19 06:11:39;;;;;;;;;6.75;5.25;;;;;19.23;61.28;101341.91;6309975;22;45535;-78
2021/08/19 06:14:04;;;;;;;;;5.00;5.00;;;;;19.21;60.89;101333.94;6309936;22;45303;-76
2021/08/19 06:16:30;;;;;;;;;5.00;5.00;;;;;19.21;61.42;101336.59;6309808;22;45283;-77
2021/08/19 06:18:57;;;;;;;;;6.25;5.75;;;;;19.20;61.03;101337.53;6281786;22;45460;-76
2021/08/19 06:21:23;;;;;;;;;5.25;5.25;;;;;19.23;60.86;101334.78;6281849;22;47108;-77
2021/08/19 06:23:48;;;;;;;;;7.00;4.75;;;;;19.26;61.14;101342.69;6310016;22;45360;-77
2021/08/19 06:26:13;;;;;;;;;5.75;5.75;;;;;19.27;61.18;101341.78;6282270;22;45228;-77
2021/08/19 06:28:39;;;;;;;;;6.50;5.75;;;;;19.25;61.11;101335.59;6282003;22;45581;-77
2021/08/19 06:31:04;;;;;;;;;6.00;6.00;;;;;19.25;61.01;101343.63;6310002;22;46171;-77
2021/08/19 06:33:29;;;;;;;;;8.50;8.50;;;;;19.30;61.36;101343.44;6281937;22;45216;-76
2021/08/19 06:35:55;;;;;;;;;9.25;7.00;;;;;19.28;60.87;101340.84;6282132;22;45144;-76
2021/08/19 06:38:20;;;;;;;;;7.33;6.33;;;;;19.30;60.59;101346.13;6309913;22;45177;-77
2021/08/19 06:40:46;;;;;;;;;7.75;7.75;;;;;19.34;60.91;101350.47;6309797;22;45378;-77
2021/08/19 06:43:11;;;;;;;;;5.00;5.00;;;;;19.31;60.60;101342.56;6310265;22;45251;-77
2021/08/19 06:45:36;;;;;;;;;7.33;7.00;;;;;19.38;60.72;101349.47;6310155;22;45590;-77
2021/08/19 06:48:02;;;;;;;;;6.00;4.67;;;;;19.30;60.93;101333.69;6281477;22;45473;-77
2021/08/19 06:50:27;;;;;;;;;7.75;7.25;;;;;19.38;60.78;101341.47;6281923;22;46298;-77
2021/08/19 06:52:53;;;;;;;;;6.50;6.50;;;;;19.39;60.62;101340.53;6281639;22;45163;-77
2021/08/19 06:55:18;;;;;;;;;8.75;7.00;;;;;19.38;60.90;101342.31;6309992;22;45294;-77
2021/08/19 06:57:43;;;;;;;;;7.75;6.75;;;;;19.38;60.46;101344.13;6307586;22;45385;-77
2021/08/19 07:00:10;;;;;;;;;5.00;5.00;;;;;19.38;60.30;101347.66;6309615;22;45849;-77
2021/08/19 07:02:37;;;;;;;;;9.00;6.00;;;;;19.28;60.53;101340.84;6309354;22;45360;-77
2021/08/19 07:05:02;;;;;;;;;8.00;7.75;;;;;19.29;60.80;101331.91;6309514;22;45295;-77
2021/08/19 07:07:28;;;;;;;;;7.25;7.25;;;;;19.33;60.80;101335.38;6309694;22;45346;-77
2021/08/19 07:09:55;;;;;;;;;4.67;4.00;;;;;19.38;60.53;101336.97;6309766;22;46459;-76
2021/08/19 07:12:22;;;;;;;;;6.33;5.67;;;;;19.41;60.14;101332.47;6309817;22;45105;-76
2021/08/19 07:14:47;;;;;;;;;8.25;7.00;;;;;19.50;60.02;101337.50;6281613;22;45257;-76
2021/08/19 07:17:13;;;;;;;;;10.33;9.33;;;;;19.58;60.06;101335.47;6281093;22;45181;-77
2021/08/19 07:19:38;;;;;;;;;5.67;4.67;;;;;19.60;59.75;101322.94;6309604;22;45244;-76
2021/08/19 07:22:04;;;;;;;;;7.00;6.33;;;;;19.68;59.91;101336.97;6309565;22;45433;-77
2021/08/19 07:24:30;;;;;;;;;7.50;7.25;;;;;19.72;59.45;101335.06;6309965;22;45380;-77
2021/08/19 07:26:55;;;;;;;;;7.00;7.00;;;;;19.78;59.14;101340.19;6281422;22;45353;-77
2021/08/19 07:29:20;;;;;;;;;6.67;5.67;;;;;19.81;59.45;101337.47;6309432;22;45385;-77
2021/08/19 07:31:46;;;;;;;;;9.75;8.25;;;;;19.78;59.37;101322.41;6309238;22;45231;-76
2021/08/19 07:34:11;;;;;;;;;9.00;7.00;;;;;19.85;59.23;101336.41;6309881;22;45375;-76
2021/08/19 07:36:37;;;;;;;;;7.00;7.00;;;;;19.87;59.01;101334.56;6308772;22;45246;-76
2021/08/19 07:39:06;;;;;;;;;6.00;6.00;;;;;19.91;58.85;101338.00;6281040;22;46138;-77
2021/08/19 07:41:33;;;;;;;;;9.50;8.25;;;;;19.98;59.14;101334.22;6281558;22;45177;-76
2021/08/19 07:43:58;;;;;;;;;5.33;5.33;;;;;19.99;59.45;101334.19;6281239;22;45334;-76
2021/08/19 07:46:24;;;;;;;;;5.00;5.00;;;;;20.11;58.87;101335.56;6309099;22;45531;-76
2021/08/19 07:48:50;;;;;;;;;7.33;7.33;;;;;20.15;59.02;101330.97;6309332;22;45970;-76
2021/08/19 07:51:16;;;;;;;;;6.67;5.67;;;;;20.23;58.64;101344.94;6281233;22;46099;-76
2021/08/19 07:53:42;;;;;;;;;6.33;6.00;;;;;20.23;58.37;101334.25;6309580;22;45547;-77
2021/08/19 07:56:07;;;;;;;;;7.00;6.00;;;;;20.27;58.44;101333.22;6309000;22;45259;-76
2021/08/19 07:58:33;;;;;;;;;7.00;6.50;;;;;20.27;58.02;101333.22;6308981;22;45295;-76
2021/08/19 08:00:58;;;;;;;;;10.33;5.67;;;;;20.31;58.17;101342.88;6280888;22;45315;-77
2021/08/19 08:03:25;;;;;;;;;7.50;7.25;;;;;20.31;57.94;101352.69;6308925;22;45240;-76
2021/08/19 08:05:50;;;;;;;;;6.75;6.75;;;;;20.26;57.96;101345.72;6309101;22;45154;-76
2021/08/19 08:08:16;;;;;;;;;7.67;7.00;;;;;20.25;58.25;101343.09;6281133;22;47370;-76
2021/08/19 08:10:43;;;;;;;;;6.33;6.33;;;;;20.31;58.05;101350.03;6282251;22;45213;-76
2021/08/19 08:13:10;;;;;;;;;6.00;6.00;;;;;20.26;58.32;101345.72;6280818;22;45469;-77
2021/08/19 08:15:36;;;;;;;;;5.33;5.33;;;;;20.28;57.89;101351.88;6280677;22;45852;-76
2021/08/19 08:18:03;;;;;;;;;6.00;5.00;;;;;20.25;58.40;101349.31;6308609;22;45323;-76
2021/08/19 08:20:28;;;;;;;;;6.75;6.25;;;;;20.28;58.57;101354.56;6280625;22;45275;-76
2021/08/19 08:22:54;;;;;;;;;4.25;4.25;;;;;20.28;58.13;101357.22;6306616;22;45187;-76
2021/08/19 08:25:20;;;;;;;;;5.00;4.75;;;;;20.30;58.44;101353.66;6280694;22;45458;-77
2021/08/19 08:27:53;;;;;;;;;8.00;7.67;;;;;20.35;58.35;101360.56;6280444;22;47418;-77
2021/08/19 08:30:20;;;;;;;;;7.25;4.75;;;;;20.38;58.12;101359.59;6307011;22;45250;-76
2021/08/19 08:32:45;;;;;;;;;7.33;6.00;;;;;20.39;58.01;101364.88;6308416;22;45298;-76
2021/08/19 08:35:12;;;;;;;;;9.00;9.00;;;;;20.31;57.81;101355.38;6280544;22;45172;-76
2021/08/19 08:37:38;;;;;;;;;5.33;5.33;;;;;20.35;57.73;101363.25;6280580;22;47929;-76
2021/08/19 08:40:04;;;;;;;;;5.67;5.67;;;;;20.28;57.77;101354.56;6308597;22;45216;-76
2021/08/19 08:42:29;;;;;;;;;7.00;7.00;;;;;20.27;58.04;101363.50;6280683;22;45382;-76
2021/08/19 08:44:55;;;;;;;;;8.00;5.75;;;;;20.24;58.16;101363.63;6307941;22;45552;-77
2021/08/19 08:47:21;;;;;;;;;7.50;6.75;;;;;20.22;58.13;101356.56;6279805;22;47093;-76
2021/08/19 08:49:47;;;;;;;;;9.00;8.00;;;;;20.22;58.46;101361.91;6281957;22;45352;-77
2021/08/19 08:52:12;;;;;;;;;8.00;6.00;;;;;20.24;58.30;101368.09;6281767;22;45413;-77
2021/08/19 08:54:38;;;;;;;;;8.33;6.33;;;;;20.23;58.52;101372.59;6309845;22;45307;-77
2021/08/19 08:57:03;;;;;;;;;6.67;6.33;;;;;20.21;58.64;101360.19;6309968;22;45495;-77
2021/08/19 08:59:29;;;;;;;;;6.00;6.00;;;;;20.21;58.11;101360.19;6282136;22;45225;-77
2021/08/19 09:01:57;;;;;;;;;7.00;7.00;;;;;20.26;57.98;101369.78;6310006;22;45283;-77
2021/08/19 09:04:24;;;;;;;;;7.00;6.00;;;;;20.28;57.57;101367.91;6309390;22;45323;-77
2021/08/19 09:06:50;;;;;;;;;6.33;6.00;;;;;20.29;58.03;101366.16;6309591;22;45392;-77
2021/08/19 09:09:16;;;;;;;;;7.00;6.00;;;;;20.34;57.80;101379.34;6281557;22;45295;-77
2021/08/19 09:11:44;;;;;;;;;3.67;3.67;;;;;20.29;57.72;101366.16;6310237;22;45351;-77
2021/08/19 09:14:23;;;;;;;;;4.00;4.00;;;;;20.28;57.47;101369.72;6281883;22;45582;-78
2021/08/19 09:16:49;;;;;;;;;3.67;3.67;;;;;20.26;57.26;101374.25;6281327;22;47965;-78
2021/08/19 09:19:18;;;;;;;;;2.00;2.00;;;;;20.29;57.10;101374.16;6309906;22;45373;-78
2021/08/19 09:21:51;;;;;;;;;1.67;1.67;;;;;20.28;56.86;101372.41;6283363;22;45291;-77
2021/08/19 09:24:22;;;;;;;;;2.00;2.00;;;;;20.25;56.37;101376.06;6281677;22;45558;-77
2021/08/19 09:26:50;;;;;;;;;2.33;2.33;;;;;20.24;56.47;101368.09;6309731;22;45157;-77
2021/08/19 09:29:26;;;;;;;;;2.67;2.67;;;;;20.27;56.69;101379.56;6282156;22;45246;-75
2021/08/19 09:31:55;;;;;;;;;3.00;3.00;;;;;20.29;56.54;101374.16;6309752;22;45306;-75
2021/08/19 09:34:21;;;;;;;;;2.33;2.33;;;;;20.33;56.71;101373.13;6309516;22;45380;-75
2021/08/19 09:36:57;;;;;;;;;4.00;1.33;;;;;20.39;56.34;101372.91;6309373;22;45600;-75
2021/08/19 09:39:35;;;;;;;;;2.33;2.33;;;;;20.44;55.62;101375.44;6281406;22;45928;-75
2021/08/19 09:42:01;;;;;;;;;1.33;1.00;;;;;20.44;55.92;101373.63;6281151;22;45394;-75
2021/08/19 09:44:38;;;;;;;;;2.00;2.00;;;;;20.49;55.61;101374.34;6309212;22;45421;-75
2021/08/19 09:47:05;;;;;;;;;2.33;1.33;;;;;20.52;55.63;101372.47;6307177;22;47349;-76
2021/08/19 09:49:34;;;;;;;;;1.67;1.67;;;;;20.59;55.60;101371.38;6281685;22;46284;-77
2021/08/19 09:52:11;;;;;;;;;4.67;3.00;;;;;20.62;55.67;101358.75;6281297;22;45350;-77
2021/08/19 09:54:43;;;;;;;;;4.00;3.33;;;;;20.81;55.65;101358.09;6309435;22;45275;-77
2021/08/19 09:57:10;;;;;;;;;4.00;4.00;;;;;20.97;55.46;101361.97;6281378;22;47268;-77
2021/08/19 09:59:40;;;;;;;;;2.67;1.33;;;;;21.09;54.87;101352.59;6280831;22;45361;-77
2021/08/19 10:02:07;;;;;;;;;3.67;3.67;;;;;21.24;54.74;101361.84;6281033;22;45309;-75
2021/08/19 10:04:33;;;;;;;;;2.00;1.00;;;;;21.36;54.70;101358.72;6309443;22;45182;-75
2021/08/19 10:06:59;;;;;;;;;2.00;2.00;;;;;21.45;53.93;101347.66;6309605;22;46415;-76
2021/08/19 10:09:25;;;;;;;;;2.00;2.00;;;;;21.50;53.98;101352.84;6309805;22;45291;-76
2021/08/19 10:11:54;;;;;;;;;2.00;2.00;;;;;21.57;53.85;101354.31;6309940;22;45441;-76
2021/08/19 10:14:25;;;;;;;;;2.00;2.00;;;;;21.59;54.13;101355.13;6309621;22;45267;-77
2021/08/19 10:16:51;;;;;;;;;1.33;1.33;;;;;21.61;54.21;101347.91;6309613;22;45336;-77
2021/08/19 10:19:28;;;;;;;;;1.00;1.00;;;;;21.66;54.32;101348.63;6309649;22;45413;-77
2021/08/19 10:22:16;;;;;;;;;5.00;3.33;;;;;21.70;54.18;101355.56;6307670;22;45221;-77
2021/08/19 10:24:46;;;;;;;;;11.67;10.00;;;;;21.68;54.18;101349.44;6281860;22;45408;-77
2021/08/19 10:27:20;;;;;;;;;1.00;1.00;;;;;21.67;54.04;101352.16;6309347;22;45554;-77
2021/08/19 10:29:50;;;;;;;;;3.67;2.33;;;;;21.62;54.32;101360.38;6307130;22;45240;-77
2021/08/19 10:32:35;;;;;;;;;3.00;3.00;;;;;21.61;54.24;101361.31;6280934;22;45422;-77
2021/08/19 10:35:15;;;;;;;;;3.00;2.00;;;;;21.58;54.54;101359.63;6309514;22;45169;-77
2021/08/19 10:37:46;;;;;;;;;2.00;2.00;;;;;21.58;54.38;101356.97;6309685;22;46166;-77
2021/08/19 10:42:51;;;;;;;;;5.67;5.67;;;;;21.56;54.33;101355.28;6309571;22;45110;-77
2021/08/19 10:45:26;;;;;;;;;4.00;4.00;;;;;21.55;54.10;101356.22;6309408;22;45397;-77
2021/08/19 10:48:12;;;;;;;;;4.00;3.00;;;;;21.50;54.30;101359.06;6306888;22;46123;-77
2021/08/19 10:50:46;;;;;;;;;3.00;2.33;;;;;21.50;54.45;101358.19;6280422;22;45346;-77
2021/08/19 10:53:16;;;;;;;;;2.00;2.00;;;;;21.53;54.18;101358.94;6281733;22;45364;-78
2021/08/19 10:55:49;;;;;;;;;3.00;3.00;;;;;21.53;54.16;101353.59;6281657;22;46021;-78
2021/08/19 10:58:31;;;;;;;;;4.00;4.00;;;;;21.57;54.16;101352.53;6281744;22;47078;-77
2021/08/19 11:01:12;;;;;;;;;4.00;3.00;;;;;21.63;54.33;101358.59;6280800;22;45393;-77
2021/08/19 11:03:38;;;;;;;;;3.00;3.00;;;;;21.62;54.33;101352.34;6310462;22;45232;-77
2021/08/19 11:06:13;;;;;;;;;7.00;6.00;;;;;21.56;54.42;101348.09;6310187;22;45259;-77
2021/08/19 11:08:59;;;;;;;;;1.67;1.67;;;;;21.55;53.71;101342.81;6281275;22;48136;-77
2021/08/19 11:11:32;;;;;;;;;3.33;3.33;;;;;21.52;54.47;101350.97;6308006;22;45203;-78
2021/08/19 11:14:20;;;;;;;;;3.67;3.67;;;;;21.46;54.41;101353.88;6309753;22;45236;-78
2021/08/19 11:16:58;;;;;;;;;3.33;3.33;;;;;21.44;55.04;101350.38;6281077;22;45529;-76
2021/08/19 11:19:25;;;;;;;;;4.00;3.00;;;;;21.37;54.95;101349.72;6281124;22;47255;-76
2021/08/19 11:21:52;;;;;;;;;2.00;2.00;;;;;21.39;55.05;101350.59;6309416;22;45187;-76
2021/08/19 11:24:18;;;;;;;;;2.33;2.00;;;;;21.42;54.84;101344.25;6309682;22;45220;-76
2021/08/19 11:27:04;;;;;;;;;3.00;3.00;;;;;21.51;54.78;101346.53;6281446;22;45632;-76